createdAt,value
2018-01-30T00:00:29.030Z,49.97
2018-01-30T00:02:55.846Z,50.57
2018-01-30T00:05:21.680Z,50.14
2018-01-30T00:07:47.470Z,50.34
2018-01-30T00:10:13.279Z,50.15
2018-01-30T00:12:39.069Z,50.23
2018-01-30T00:15:04.916Z,50.08
2018-01-30T00:17:30.706Z,49.88
2018-01-30T00:19:56.506Z,49.58
2018-01-30T00:22:22.303Z,49.39
2018-01-30T00:24:48.125Z,49.93
2018-01-30T00:27:13.913Z,49.94
2018-01-30T00:29:39.749Z,50.05
2018-01-30T00:32:06.529Z,49.85
2018-01-30T00:34:32.322Z,49.75
2018-01-30T00:36:58.155Z,50.08
2018-01-30T00:39:23.942Z,49.79
2018-01-30T00:41:50.605Z,49.63
2018-01-30T00:44:16.435Z,49.61
2018-01-30T00:46:43.202Z,49.78
2018-01-30T00:49:09.926Z,49.57
2018-01-30T00:51:35.718Z,49.74
2018-01-30T00:54:01.507Z,49.31
2018-01-30T00:56:27.303Z,49.46
2018-01-30T00:58:53.125Z,49.00
2018-01-30T01:01:19.086Z,49.11
2018-01-30T01:03:44.902Z,49.37
2018-01-30T01:06:11.678Z,49.28
2018-01-30T01:08:38.309Z,49.57
2018-01-30T01:11:05.098Z,49.61
2018-01-30T01:13:30.951Z,49.45
2018-01-30T01:15:56.740Z,49.39
2018-01-30T01:18:22.539Z,49.14
2018-01-30T01:20:48.361Z,49.16
2018-01-30T01:23:14.156Z,49.20
2018-01-30T01:25:39.946Z,49.30
2018-01-30T01:28:05.733Z,49.35
2018-01-30T01:30:32.409Z,49.07
2018-01-30T01:32:58.205Z,49.11
2018-01-30T01:35:24.936Z,49.14
2018-01-30T01:37:51.685Z,48.47
2018-01-30T01:40:17.510Z,48.53
2018-01-30T01:42:43.348Z,48.97
2018-01-30T01:45:09.968Z,48.81
2018-01-30T01:47:35.761Z,48.81
2018-01-30T01:50:01.546Z,48.90
2018-01-30T01:52:27.378Z,48.76
2018-01-30T01:54:53.162Z,48.65
2018-01-30T01:57:18.953Z,48.55
2018-01-30T01:59:44.737Z,48.85
2018-01-30T02:02:10.571Z,48.93
2018-01-30T02:04:36.365Z,48.60
2018-01-30T02:07:02.218Z,48.64
2018-01-30T02:09:28.145Z,48.93
2018-01-30T02:11:53.937Z,48.86
2018-01-30T02:14:19.731Z,48.68
2018-01-30T02:16:45.530Z,48.95
2018-01-30T02:19:11.326Z,48.48
2018-01-30T02:21:37.132Z,48.88
2018-01-30T02:24:02.990Z,49.02
2018-01-30T02:26:28.788Z,49.04
2018-01-30T02:28:54.573Z,48.77
2018-01-30T02:31:20.370Z,48.98
2018-01-30T02:33:46.200Z,48.98
2018-01-30T02:36:12.005Z,48.70
2018-01-30T02:38:37.798Z,49.02
2018-01-30T02:41:03.600Z,49.11
2018-01-30T02:43:29.384Z,48.87
2018-01-30T02:45:55.211Z,48.97
2018-01-30T02:48:21.007Z,49.37
2018-01-30T02:50:46.844Z,48.99
2018-01-30T02:53:12.789Z,49.01
2018-01-30T02:55:38.625Z,48.98
2018-01-30T02:58:04.459Z,49.12
2018-01-30T03:00:30.256Z,48.40
2018-01-30T03:02:56.073Z,48.82
2018-01-30T03:05:21.870Z,49.13
2018-01-30T03:07:47.664Z,49.14
2018-01-30T03:10:13.462Z,49.15
2018-01-30T03:12:39.253Z,49.41
2018-01-30T03:15:05.041Z,49.27
2018-01-30T03:17:30.838Z,49.14
2018-01-30T03:19:56.682Z,49.01
2018-01-30T03:22:22.470Z,49.08
2018-01-30T03:24:48.281Z,48.89
2018-01-30T03:27:14.117Z,48.88
2018-01-30T03:29:39.921Z,49.18
2018-01-30T03:32:05.717Z,49.36
2018-01-30T03:34:31.522Z,48.96
2018-01-30T03:36:57.323Z,48.97
2018-01-30T03:39:23.114Z,49.07
2018-01-30T03:41:48.914Z,49.29
2018-01-30T03:44:14.710Z,49.21
2018-01-30T03:46:40.525Z,49.14
2018-01-30T03:49:06.317Z,49.20
2018-01-30T03:51:32.109Z,49.09
2018-01-30T03:53:57.910Z,49.32
2018-01-30T03:56:23.730Z,48.96
2018-01-30T03:58:49.535Z,49.00
2018-01-30T04:01:15.333Z,48.48
2018-01-30T04:03:41.126Z,48.38
2018-01-30T04:06:06.957Z,48.52
2018-01-30T04:08:32.757Z,48.08
2018-01-30T04:10:58.593Z,48.12
2018-01-30T04:13:24.430Z,48.13
2018-01-30T04:15:50.358Z,48.41
2018-01-30T04:18:16.145Z,48.13
2018-01-30T04:20:42.093Z,47.99
2018-01-30T04:23:07.887Z,48.36
2018-01-30T04:25:33.730Z,48.04
2018-01-30T04:27:59.533Z,48.44
2018-01-30T04:30:25.328Z,48.15
2018-01-30T04:32:51.191Z,48.21
2018-01-30T04:35:16.985Z,48.09
2018-01-30T04:37:42.815Z,47.91
2018-01-30T04:40:08.606Z,48.15
2018-01-30T04:42:34.401Z,48.38
2018-01-30T04:45:00.198Z,48.23
2018-01-30T04:47:26.028Z,48.68
2018-01-30T04:49:51.826Z,48.65
2018-01-30T04:52:17.656Z,48.29
2018-01-30T04:54:43.504Z,48.40
2018-01-30T04:57:09.295Z,48.54
2018-01-30T04:59:35.092Z,48.55
2018-01-30T05:02:00.888Z,48.35
2018-01-30T05:04:26.741Z,49.00
2018-01-30T05:06:52.578Z,48.81
2018-01-30T05:09:18.374Z,49.13
2018-01-30T05:11:44.199Z,48.67
2018-01-30T05:14:10.026Z,48.92
2018-01-30T05:16:35.865Z,48.91
2018-01-30T05:19:01.673Z,48.35
2018-01-30T05:21:27.472Z,48.79
2018-01-30T05:23:53.265Z,48.63
2018-01-30T05:26:19.112Z,48.37
2018-01-30T05:28:44.913Z,48.83
2018-01-30T05:31:10.735Z,48.24
2018-01-30T05:33:36.571Z,48.68
2018-01-30T05:36:02.420Z,48.65
2018-01-30T05:38:28.210Z,48.38
2018-01-30T05:40:54.018Z,48.59
2018-01-30T05:43:19.815Z,48.66
2018-01-30T05:45:45.614Z,48.06
2018-01-30T05:48:11.409Z,48.28
2018-01-30T05:50:37.242Z,48.51
2018-01-30T05:53:03.035Z,48.06
2018-01-30T05:55:28.878Z,48.53
2018-01-30T05:57:54.672Z,48.47
2018-01-30T06:00:20.484Z,48.19
2018-01-30T06:02:46.295Z,48.42
2018-01-30T06:05:12.104Z,48.25
2018-01-30T06:07:37.892Z,48.57
2018-01-30T06:10:03.684Z,48.15
2018-01-30T06:12:29.505Z,48.12
2018-01-30T06:14:55.314Z,48.34
2018-01-30T06:17:21.150Z,48.02
2018-01-30T06:19:46.961Z,47.71
2018-01-30T06:22:12.745Z,47.81
2018-01-30T06:24:38.525Z,47.34
2018-01-30T06:27:04.321Z,47.49
2018-01-30T06:29:30.113Z,47.46
2018-01-30T06:31:55.909Z,47.36
2018-01-30T06:34:21.698Z,47.61
2018-01-30T06:36:47.498Z,47.84
2018-01-30T06:39:13.429Z,47.61
2018-01-30T06:41:39.222Z,47.39
2018-01-30T06:44:05.017Z,47.33
2018-01-30T06:46:30.815Z,47.14
2018-01-30T06:48:56.601Z,47.69
2018-01-30T06:51:22.381Z,47.10
2018-01-30T06:53:48.162Z,46.69
2018-01-30T06:56:14.086Z,47.68
2018-01-30T06:58:39.895Z,47.85
2018-01-30T07:01:05.703Z,47.62
2018-01-30T07:03:31.754Z,47.20
2018-01-30T07:05:57.547Z,47.22
2018-01-30T07:08:23.330Z,47.72
2018-01-30T07:10:49.158Z,47.79
2018-01-30T07:13:14.957Z,47.36
2018-01-30T07:15:40.910Z,47.50
2018-01-30T07:18:06.705Z,47.49
2018-01-30T07:20:32.540Z,48.01
2018-01-30T07:22:58.333Z,47.60
2018-01-30T07:25:24.157Z,47.33
2018-01-30T07:27:50.003Z,48.10
2018-01-30T07:30:15.816Z,47.82
2018-01-30T07:32:41.697Z,47.50
2018-01-30T07:35:07.498Z,47.92
2018-01-30T07:37:33.338Z,47.58
2018-01-30T07:39:59.164Z,47.46
2018-01-30T07:42:25.898Z,47.08
2018-01-30T07:44:51.722Z,47.12
2018-01-30T07:47:17.514Z,46.43
2018-01-30T07:49:43.355Z,46.94
2018-01-30T07:52:09.147Z,46.81
2018-01-30T07:54:34.977Z,45.77
2018-01-30T07:57:01.074Z,46.42
2018-01-30T07:59:26.973Z,46.10
2018-01-30T08:01:52.807Z,47.01
2018-01-30T08:04:18.714Z,46.98
2018-01-30T08:06:44.504Z,46.92
2018-01-30T08:09:10.337Z,46.74
2018-01-30T08:11:36.126Z,46.71
2018-01-30T08:14:02.019Z,47.11
2018-01-30T08:16:27.871Z,46.73
2018-01-30T08:18:54.622Z,46.44
2018-01-30T08:21:20.631Z,47.09
2018-01-30T08:23:46.518Z,46.54
2018-01-30T08:26:12.333Z,47.04
2018-01-30T08:28:38.121Z,47.54
2018-01-30T08:31:03.949Z,46.93
2018-01-30T08:33:29.883Z,47.22
2018-01-30T08:35:55.675Z,47.59
2018-01-30T08:38:21.466Z,46.89
2018-01-30T08:40:47.256Z,47.15
2018-01-30T08:43:13.110Z,47.92
2018-01-30T08:45:38.921Z,47.41
2018-01-30T08:48:04.749Z,47.75
2018-01-30T08:50:30.531Z,47.43
2018-01-30T08:52:56.350Z,46.98
2018-01-30T08:55:22.168Z,47.82
2018-01-30T08:57:48.093Z,48.28
2018-01-30T09:00:13.935Z,47.46
2018-01-30T09:02:39.764Z,47.13
2018-01-30T09:05:05.562Z,47.81
2018-01-30T09:07:31.343Z,47.04
2018-01-30T09:09:57.133Z,47.50
2018-01-30T09:12:22.930Z,47.49
2018-01-30T09:14:48.725Z,46.47
2018-01-30T09:17:14.506Z,46.65
2018-01-30T09:19:40.374Z,46.25
2018-01-30T09:22:06.162Z,46.32
2018-01-30T09:24:32.000Z,46.75
2018-01-30T09:26:57.781Z,46.37
2018-01-30T09:29:23.785Z,46.39
2018-01-30T09:31:49.612Z,46.76
2018-01-30T09:34:15.400Z,46.79
2018-01-30T09:36:41.200Z,46.73
2018-01-30T09:39:07.019Z,47.07
2018-01-30T09:41:32.820Z,46.92
2018-01-30T09:43:58.645Z,46.91
2018-01-30T09:46:24.434Z,47.12
2018-01-30T09:48:50.231Z,47.17
2018-01-30T09:51:16.020Z,46.81
2018-01-30T09:53:41.796Z,47.11
2018-01-30T09:56:07.590Z,47.68
2018-01-30T09:58:33.380Z,47.60
2018-01-30T10:00:59.159Z,47.52
2018-01-30T10:03:25.022Z,47.27
2018-01-30T10:05:50.926Z,47.19
2018-01-30T10:08:16.865Z,47.73
2018-01-30T10:10:42.672Z,47.22
2018-01-30T10:13:08.848Z,47.30
2018-01-30T10:15:34.637Z,47.59
2018-01-30T10:18:00.421Z,47.43
2018-01-30T10:20:26.208Z,46.70
2018-01-30T10:22:52.010Z,46.26
2018-01-30T10:25:18.265Z,46.48
2018-01-30T10:27:44.049Z,47.16
2018-01-30T10:30:09.979Z,46.30
2018-01-30T10:32:35.756Z,46.13
2018-01-30T10:35:01.541Z,46.02
2018-01-30T10:37:27.333Z,45.96
2018-01-30T10:39:53.113Z,45.76
2018-01-30T10:42:18.916Z,45.78
2018-01-30T10:44:44.701Z,45.85
2018-01-30T10:47:10.558Z,46.49
2018-01-30T10:49:36.509Z,46.08
2018-01-30T10:52:02.333Z,46.87
2018-01-30T10:54:28.670Z,46.73
2018-01-30T10:56:54.485Z,46.50
2018-01-30T10:59:20.304Z,46.37
2018-01-30T11:01:46.098Z,46.98
2018-01-30T11:04:12.047Z,47.15
2018-01-30T11:06:38.618Z,46.75
2018-01-30T11:09:04.479Z,46.79
2018-01-30T11:11:30.301Z,46.47
2018-01-30T11:13:56.171Z,46.47
2018-01-30T11:16:22.550Z,46.70
2018-01-30T11:18:49.266Z,46.65
2018-01-30T11:21:15.939Z,46.08
2018-01-30T11:23:41.761Z,46.02
2018-01-30T11:26:08.572Z,45.79
2018-01-30T11:28:35.394Z,46.64
2018-01-30T11:31:01.225Z,46.89
2018-01-30T11:33:27.978Z,46.32
2018-01-30T11:35:54.761Z,46.97
2018-01-30T11:38:21.433Z,46.32
2018-01-30T11:40:47.259Z,47.13
2018-01-30T11:43:14.069Z,46.78
2018-01-30T11:45:40.613Z,46.95
2018-01-30T11:48:06.409Z,47.29
2018-01-30T11:50:32.203Z,46.55
2018-01-30T11:52:58.877Z,47.08
2018-01-30T11:55:24.656Z,46.83
2018-01-30T11:57:50.446Z,46.85
2018-01-30T12:00:17.304Z,47.11
2018-01-30T12:02:43.138Z,47.21
2018-01-30T12:05:08.938Z,47.53
2018-01-30T12:07:34.717Z,47.84
2018-01-30T12:10:00.502Z,47.42
2018-01-30T12:12:26.300Z,46.50
2018-01-30T12:14:53.037Z,47.23
2018-01-30T12:17:18.905Z,47.24
2018-01-30T12:19:44.732Z,47.50
2018-01-30T12:22:10.568Z,47.23
2018-01-30T12:24:36.393Z,47.29
2018-01-30T12:27:02.998Z,47.57
2018-01-30T12:29:29.930Z,46.86
2018-01-30T12:31:55.714Z,47.27
2018-01-30T12:34:22.565Z,47.64
2018-01-30T12:36:49.064Z,47.46
2018-01-30T12:39:14.841Z,47.50
2018-01-30T12:41:40.676Z,47.56
2018-01-30T12:44:06.649Z,47.64
2018-01-30T12:46:32.438Z,46.66
2018-01-30T12:48:58.222Z,46.90
2018-01-30T12:51:24.011Z,46.72
2018-01-30T12:53:49.795Z,46.48
2018-01-30T12:56:15.636Z,46.18
2018-01-30T12:58:41.420Z,46.02
2018-01-30T13:01:07.204Z,46.55
2018-01-30T13:03:32.997Z,45.61
2018-01-30T13:05:58.777Z,46.76
2018-01-30T13:08:24.566Z,46.89
2018-01-30T13:10:50.349Z,46.11
2018-01-30T13:13:16.149Z,46.22
2018-01-30T13:15:41.930Z,46.43
2018-01-30T13:18:07.721Z,46.95
2018-01-30T13:20:33.519Z,46.05
2018-01-30T13:22:59.307Z,46.58
2018-01-30T13:25:25.121Z,46.96
2018-01-30T13:27:50.910Z,46.85
2018-01-30T13:30:16.749Z,46.54
2018-01-30T13:32:42.538Z,46.39
2018-01-30T13:35:08.411Z,47.04
2018-01-30T13:37:34.204Z,46.12
2018-01-30T13:40:00.009Z,46.39
2018-01-30T13:42:25.797Z,46.52
2018-01-30T13:44:51.585Z,46.31
2018-01-30T13:47:17.370Z,46.53
2018-01-30T13:49:43.160Z,46.46
2018-01-30T13:52:08.950Z,46.29
2018-01-30T13:54:34.737Z,47.16
2018-01-30T13:57:00.534Z,46.45
2018-01-30T13:59:26.328Z,46.23
2018-01-30T14:01:52.118Z,46.72
2018-01-30T14:04:17.901Z,46.89
2018-01-30T14:06:43.694Z,46.28
2018-01-30T14:09:09.484Z,45.99
2018-01-30T14:11:35.280Z,46.38
2018-01-30T14:14:01.113Z,46.28
2018-01-30T14:16:26.906Z,46.89
2018-01-30T14:18:52.722Z,46.80
2018-01-30T14:21:18.511Z,46.55
2018-01-30T14:23:44.293Z,46.35
2018-01-30T14:26:10.077Z,46.74
2018-01-30T14:28:35.861Z,46.17
2018-01-30T14:31:01.823Z,46.27
2018-01-30T14:33:27.609Z,46.88
2018-01-30T14:35:53.430Z,46.48
2018-01-30T14:38:19.317Z,46.28
2018-01-30T14:40:45.278Z,46.97
2018-01-30T14:43:11.110Z,45.48
2018-01-30T14:45:36.895Z,46.16
2018-01-30T14:48:02.681Z,45.74
2018-01-30T14:50:28.468Z,45.87
2018-01-30T14:52:54.249Z,46.77
2018-01-30T14:55:20.068Z,46.67
2018-01-30T14:57:45.859Z,46.14
2018-01-30T15:00:11.658Z,46.66
2018-01-30T15:02:37.454Z,45.78
2018-01-30T15:05:03.248Z,46.44
2018-01-30T15:07:29.041Z,46.60
2018-01-30T15:09:54.854Z,46.70
2018-01-30T15:12:21.565Z,46.07
2018-01-30T15:14:47.351Z,45.97
2018-01-30T15:17:13.146Z,45.94
2018-01-30T15:19:38.970Z,46.10
2018-01-30T15:22:04.761Z,45.92
2018-01-30T15:24:30.620Z,46.38
2018-01-30T15:26:56.424Z,46.21
2018-01-30T15:29:22.237Z,45.97
2018-01-30T15:31:48.028Z,45.81
2018-01-30T15:34:13.822Z,46.30
2018-01-30T15:36:39.602Z,46.04
2018-01-30T15:39:05.401Z,46.01
2018-01-30T15:41:31.192Z,45.15
2018-01-30T15:43:56.990Z,46.22
2018-01-30T15:46:22.857Z,46.30
2018-01-30T15:48:48.646Z,46.52
2018-01-30T15:51:14.430Z,46.53
2018-01-30T15:53:40.223Z,46.65
2018-01-30T15:56:06.094Z,46.04
2018-01-30T15:58:31.875Z,45.72
2018-01-30T16:00:57.720Z,46.21
2018-01-30T16:03:23.509Z,46.74
2018-01-30T16:05:49.293Z,46.52
2018-01-30T16:08:15.085Z,46.93
2018-01-30T16:10:41.163Z,46.56
2018-01-30T16:13:06.954Z,46.46
2018-01-30T16:15:32.773Z,46.65
2018-01-30T16:17:58.558Z,46.74
2018-01-30T16:20:24.507Z,46.78
2018-01-30T16:22:51.314Z,46.84
2018-01-30T16:25:17.215Z,45.96
2018-01-30T16:27:43.005Z,46.30
2018-01-30T16:30:08.788Z,46.41
2018-01-30T16:32:34.654Z,46.61
2018-01-30T16:35:00.425Z,47.10
2018-01-30T16:37:26.217Z,47.07
2018-01-30T16:39:52.038Z,46.45
2018-01-30T16:42:17.862Z,47.06
2018-01-30T16:44:43.659Z,46.55
2018-01-30T16:47:09.488Z,46.71
2018-01-30T16:49:35.278Z,46.72
2018-01-30T16:52:01.115Z,47.25
2018-01-30T16:54:26.897Z,46.26
2018-01-30T16:56:52.750Z,46.66
2018-01-30T16:59:18.579Z,47.17
2018-01-30T17:01:44.361Z,47.04
2018-01-30T17:04:10.198Z,46.59
2018-01-30T17:06:35.991Z,46.68
2018-01-30T17:09:01.815Z,46.11
2018-01-30T17:11:27.607Z,46.75
2018-01-30T17:13:53.413Z,46.92
2018-01-30T17:16:19.197Z,46.36
2018-01-30T17:18:44.998Z,46.58
2018-01-30T17:21:10.795Z,46.58
2018-01-30T17:23:36.585Z,45.86
2018-01-30T17:26:02.370Z,44.46
2018-01-30T17:28:28.150Z,43.18
2018-01-30T17:30:53.935Z,43.13
2018-01-30T17:33:19.754Z,42.15
2018-01-30T17:35:45.537Z,41.93
2018-01-30T17:38:11.360Z,41.80
2018-01-30T17:40:37.142Z,42.19
2018-01-30T17:43:02.922Z,41.72
2018-01-30T17:45:28.705Z,41.48
2018-01-30T17:47:54.493Z,41.64
2018-01-30T17:50:20.279Z,41.84
2018-01-30T17:52:46.129Z,43.26
2018-01-30T17:55:11.918Z,43.63
2018-01-30T17:57:37.704Z,42.65
2018-01-30T18:00:03.534Z,43.35
2018-01-30T18:02:29.389Z,43.31
2018-01-30T18:04:55.166Z,43.60
2018-01-30T18:07:20.958Z,42.79
2018-01-30T18:09:46.737Z,43.68
2018-01-30T18:12:12.529Z,44.96
2018-01-30T18:14:38.314Z,44.17
2018-01-30T18:17:05.053Z,44.82
2018-01-30T18:19:30.912Z,44.90
2018-01-30T18:21:56.694Z,44.26
2018-01-30T18:24:22.477Z,44.77
2018-01-30T18:26:48.263Z,45.01
2018-01-30T18:29:15.950Z,44.29
2018-01-30T18:31:41.750Z,43.90
2018-01-30T18:34:07.573Z,45.48
2018-01-30T18:36:33.374Z,44.46
2018-01-30T18:38:59.161Z,44.96
2018-01-30T18:41:24.949Z,44.16
2018-01-30T18:43:50.729Z,44.12
2018-01-30T18:46:16.521Z,45.08
2018-01-30T18:48:42.303Z,45.08
2018-01-30T18:51:08.098Z,45.14
2018-01-30T18:53:33.891Z,45.97
2018-01-30T18:55:59.681Z,45.82
2018-01-30T18:58:25.470Z,45.04
2018-01-30T19:00:51.268Z,44.47
2018-01-30T19:03:17.081Z,44.69
2018-01-30T19:05:42.869Z,45.61
2018-01-30T19:08:08.694Z,45.59
2018-01-30T19:10:34.477Z,45.47
2018-01-30T19:13:00.311Z,45.24
2018-01-30T19:15:26.089Z,46.09
2018-01-30T19:17:51.976Z,45.69
2018-01-30T19:20:17.770Z,45.59
2018-01-30T19:22:43.554Z,46.13
2018-01-30T19:25:09.355Z,46.28
2018-01-30T19:27:35.259Z,46.33
2018-01-30T19:30:01.048Z,46.21
2018-01-30T19:32:26.888Z,45.86
2018-01-30T19:34:52.673Z,45.61
2018-01-30T19:37:18.526Z,46.50
2018-01-30T19:39:44.315Z,45.20
2018-01-30T19:42:10.137Z,46.27
2018-01-30T19:44:36.122Z,46.42
2018-01-30T19:47:01.908Z,44.87
2018-01-30T19:49:28.082Z,45.24
2018-01-30T19:51:53.970Z,46.15
2018-01-30T19:54:19.766Z,45.40
2018-01-30T19:56:45.558Z,45.50
2018-01-30T19:59:11.341Z,45.22
2018-01-30T20:01:37.166Z,45.15
2018-01-30T20:04:02.962Z,45.40
2018-01-30T20:06:29.068Z,45.15
2018-01-30T20:08:55.362Z,45.68
2018-01-30T20:11:23.555Z,45.63
2018-01-30T20:13:50.411Z,45.54
2018-01-30T20:16:19.634Z,44.46
2018-01-30T20:18:49.191Z,45.40
2018-01-30T20:24:11.266Z,45.80
2018-01-30T20:26:45.233Z,45.74
2018-01-30T20:29:11.478Z,45.34
2018-01-30T20:31:37.408Z,45.13
2018-01-30T20:34:03.259Z,44.05
2018-01-30T20:36:31.222Z,45.50
2018-01-30T20:39:01.372Z,46.00
2018-01-30T20:41:27.234Z,46.25
2018-01-30T20:43:53.205Z,45.96
2018-01-30T20:46:18.991Z,45.56
2018-01-30T20:48:45.530Z,45.63
2018-01-30T20:51:11.326Z,44.22
2018-01-30T20:53:40.674Z,43.88
2018-01-30T20:56:14.453Z,45.37
2018-01-30T20:58:42.514Z,46.15
2018-01-30T21:01:10.023Z,45.69
2018-01-30T21:03:38.760Z,46.30
2018-01-30T21:06:14.077Z,45.19
2018-01-30T21:08:42.040Z,45.62
2018-01-30T21:11:10.000Z,44.03
2018-01-30T21:13:40.304Z,45.48
2018-01-30T21:16:09.848Z,45.48
2018-01-30T21:18:35.709Z,46.11
2018-01-30T21:21:01.576Z,45.92
2018-01-30T21:23:27.370Z,45.65
2018-01-30T21:25:53.168Z,45.53
2018-01-30T21:28:18.991Z,46.58
2018-01-30T21:30:44.873Z,45.28
2018-01-30T21:33:10.747Z,44.87
2018-01-30T21:35:36.536Z,44.84
2018-01-30T21:38:02.354Z,45.18
2018-01-30T21:40:28.174Z,45.19
2018-01-30T21:42:54.166Z,45.68
2018-01-30T21:45:20.054Z,44.64
2018-01-30T21:47:46.283Z,44.71
2018-01-30T21:50:12.193Z,44.62
2018-01-30T21:52:37.977Z,44.80
2018-01-30T21:55:03.846Z,44.16
2018-01-30T21:57:29.635Z,44.30
2018-01-30T21:59:55.462Z,44.47
2018-01-30T22:02:21.289Z,43.82
2018-01-30T22:04:47.072Z,45.30
2018-01-30T22:07:12.874Z,43.56
2018-01-30T22:09:38.663Z,43.94
2018-01-30T22:12:04.453Z,44.02
2018-01-30T22:14:30.238Z,42.79
2018-01-30T22:16:56.073Z,43.48
2018-01-30T22:19:21.866Z,45.08
2018-01-30T22:21:47.697Z,43.88
2018-01-30T22:24:13.494Z,44.13
2018-01-30T22:26:39.366Z,44.57
2018-01-30T22:29:05.190Z,44.47
2018-01-30T22:31:30.966Z,43.47
2018-01-30T22:33:56.751Z,42.59
2018-01-30T22:36:22.705Z,44.02
2018-01-30T22:38:48.490Z,43.92
2018-01-30T22:41:14.294Z,43.92
2018-01-30T22:43:40.072Z,44.01
2018-01-30T22:46:05.853Z,44.09
